Time;durP1;ratioP1;P1;durP2;ratioP2;P2;SDS_P1;SDS_P2;PMS_P1;PMS_P2;Temp;Humidity;BMP_temperature;BMP_pressure;BME280_temperature;BME280_humidity;BME280_pressure;Samples;Min_cycle;Max_cycle;Signal;HPM_P1;HPM_P2
2023/03/22 00:00:35;;;;;;;;;;;;;;;0.67;100.00;100912.56;5114661;28;19918;-70
2023/03/22 00:03:00;;;;;;;;;;;;;;;0.66;100.00;100911.72;5113694;28;19915;-69
2023/03/22 00:05:25;;;;;;;;;;;;;;;0.65;100.00;100911.84;5114007;28;20011;-69
2023/03/22 00:07:53;;;;;;;;;;;;;;;0.59;100.00;100913.06;5114876;28;19919;-69
2023/03/22 00:10:18;;;;;;;;;;;;;;;0.52;100.00;100906.50;5114936;28;19912;-69
2023/03/22 00:12:46;;;;;;;;;;;;;;;0.50;100.00;100908.38;5095696;28;19976;-70
2023/03/22 00:15:11;;;;;;;;;;;;;;;0.53;100.00;100910.78;5113185;28;20401;-69
2023/03/22 00:17:37;;;;;;;;;;;;;;;0.55;100.00;100908.91;5113716;28;19918;-69
2023/03/22 00:20:06;;;;;;;;;;;;;;;0.54;100.00;100908.06;5113415;28;20304;-68
2023/03/22 00:22:31;;;;;;;;;;;;;;;0.49;100.00;100910.16;5113181;28;19916;-68
2023/03/22 00:24:57;;;;;;;;;;;;;;;0.45;100.00;100907.81;5112823;28;19918;-67
2023/03/22 00:27:22;;;;;;;;;;;;;;;0.43;100.00;100915.78;5112741;28;19950;-67
2023/03/22 00:29:50;;;;;;;;;;;;;;;0.46;100.00;100909.50;5112604;28;19966;-67
2023/03/22 00:32:15;;;;;;;;;;;;;;;0.51;100.00;100912.66;5096819;28;19912;-68
2023/03/22 00:34:42;;;;;;;;;;;;;;;0.51;100.00;100905.66;5098361;28;20435;-67
2023/03/22 00:37:08;;;;;;;;;;;;;;;0.43;100.00;100902.66;5116695;28;19997;-67
2023/03/22 00:39:33;;;;;;;;;;;;;;;0.41;100.00;100911.56;5116514;28;20031;-66
2023/03/22 00:41:59;;;;;;;;;;;;;;;0.41;100.00;100915.03;5116575;28;19954;-66
2023/03/22 00:44:24;;;;;;;;;;;;;;;0.45;100.00;100913.06;5116358;28;19911;-66
2023/03/22 00:46:49;;;;;;;;;;;;;;;0.51;100.00;100910.91;5116306;28;19912;-67
2023/03/22 00:49:15;;;;;;;;;;;;;;;0.51;100.00;100907.44;5116304;28;20362;-67
2023/03/22 00:51:40;;;;;;;;;;;;;;;0.53;100.00;100916.03;5116210;28;19916;-67
2023/03/22 00:54:05;;;;;;;;;;;;;;;0.60;100.00;100909.50;5116301;28;19912;-67
2023/03/22 00:56:32;;;;;;;;;;;;;;;0.61;100.00;100911.19;5116178;28;19912;-68
2023/03/22 00:58:58;;;;;;;;;;;;;;;0.56;100.00;100905.38;5097699;28;19912;-67
2023/03/22 01:01:23;;;;;;;;;;;;;;;0.54;100.00;100908.06;5115826;28;20046;-68
2023/03/22 01:03:49;;;;;;;;;;;;;;;0.52;100.00;100911.72;5116024;28;19915;-68
2023/03/22 01:06:15;;;;;;;;;;;;;;;0.46;100.00;100904.25;5116456;28;19922;-67
2023/03/22 01:08:40;;;;;;;;;;;;;;;0.48;100.00;100907.63;5098103;28;19916;-68
2023/03/22 01:11:07;;;;;;;;;;;;;;;0.54;100.00;100913.31;5116013;28;20267;-68
2023/03/22 01:13:32;;;;;;;;;;;;;;;0.49;100.00;100909.31;5115637;28;20355;-68
2023/03/22 01:15:58;;;;;;;;;;;;;;;0.48;100.00;100912.88;5115871;28;19912;-67
2023/03/22 01:18:23;;;;;;;;;;;;;;;0.40;100.00;100912.50;5115473;28;20283;-67
2023/03/22 01:20:48;;;;;;;;;;;;;;;0.38;100.00;100915.22;5097370;28;20006;-67
2023/03/22 01:23:14;;;;;;;;;;;;;;;0.33;100.00;100925.13;5115725;28;19947;-67
2023/03/22 01:25:39;;;;;;;;;;;;;;;0.24;100.00;100910.81;5116086;28;19912;-66
2023/03/22 01:28:06;;;;;;;;;;;;;;;0.23;100.00;100924.84;5115554;28;19943;-67
2023/03/22 01:30:32;;;;;;;;;;;;;;;0.22;100.00;100917.91;5115545;28;19916;-67
2023/03/22 01:32:57;;;;;;;;;;;;;;;0.18;100.00;100921.66;5115479;28;20060;-67
2023/03/22 01:35:22;;;;;;;;;;;;;;;0.18;100.00;100908.56;5115481;28;19916;-65
2023/03/22 01:37:48;;;;;;;;;;;;;;;0.22;100.00;100912.66;5115394;28;19911;-67
2023/03/22 01:40:14;;;;;;;;;;;;;;;0.17;100.00;100913.88;5115381;28;20013;-66
2023/03/22 01:42:39;;;;;;;;;;;;;;;0.19;100.00;100912.03;5114257;28;20394;-68
2023/03/22 01:45:15;;;;;;;;;;;;;;;0.20;100.00;100925.03;5115130;28;19912;-67
2023/03/22 01:47:42;;;;;;;;;;;;;;;0.12;100.00;100921.19;5115128;28;19915;-66
2023/03/22 01:50:08;;;;;;;;;;;;;;;0.16;100.00;100912.22;5115249;28;19919;-67
2023/03/22 01:52:34;;;;;;;;;;;;;;;0.22;100.00;100920.53;5115098;28;19912;-67
2023/03/22 01:55:00;;;;;;;;;;;;;;;0.22;100.00;100920.53;5115162;28;19951;-67
2023/03/22 01:57:25;;;;;;;;;;;;;;;0.16;100.00;100922.69;5116818;28;19912;-65
2023/03/22 01:59:52;;;;;;;;;;;;;;;0.18;100.00;100926.88;5115865;28;19961;-67
2023/03/22 02:02:18;;;;;;;;;;;;;;;0.18;100.00;100923.44;5115846;28;20329;-66
2023/03/22 02:04:44;;;;;;;;;;;;;;;0.06;100.00;100930.25;5115711;28;19911;-67
2023/03/22 02:07:15;;;;;;;;;;;;;;;-0.04;100.00;100921.25;5114619;28;19916;-67
2023/03/22 02:09:44;;;;;;;;;;;;;;;-0.09;100.00;100918.06;5114882;28;19911;-67
2023/03/22 02:12:15;;;;;;;;;;;;;;;-0.14;100.00;100925.34;5114663;28;19912;-66
2023/03/22 02:14:52;;;;;;;;;;;;;;;-0.22;100.00;100927.59;5114727;28;19911;-66
2023/03/22 02:17:50;;;;;;;;;;;;;;;-0.22;100.00;100914.50;5099476;28;19911;-66
2023/03/22 02:20:37;;;;;;;;;;;;;;;-0.14;100.00;100914.88;5114721;28;19935;-66
2023/03/22 02:23:21;;;;;;;;;;;;;;;-0.04;100.00;100918.63;5114804;28;19912;-67
2023/03/22 02:26:11;;;;;;;;;;;;;;;-0.13;100.00;100919.19;5114422;28;19972;-68
2023/03/22 02:28:49;;;;;;;;;;;;;;;-0.09;100.00;100923.28;5114565;28;19912;-66
2023/03/22 02:31:26;;;;;;;;;;;;;;;0.04;100.00;100920.81;5114845;28;19965;-66
2023/03/22 02:34:13;;;;;;;;;;;;;;;0.13;100.00;100923.72;5114474;28;19966;-66
2023/03/22 02:36:44;;;;;;;;;;;;;;;-0.01;100.00;100921.06;5114536;28;19916;-67
2023/03/22 02:39:13;;;;;;;;;;;;;;;-0.05;100.00;100924.78;5114153;28;19994;-69
2023/03/22 02:41:56;;;;;;;;;;;;;;;0.04;100.00;100932.13;5114051;28;20337;-68
2023/03/22 02:44:40;;;;;;;;;;;;;;;0.06;100.00;100921.56;5114513;28;20347;-66
2023/03/22 02:47:05;;;;;;;;;;;;;;;0.00;100.00;100930.63;5114119;28;19911;-67
2023/03/22 02:49:38;;;;;;;;;;;;;;;0.03;100.00;100922.59;5114181;28;19923;-68
2023/03/22 02:52:09;;;;;;;;;;;;;;;0.10;100.00;100923.91;5114097;28;20005;-73
2023/03/22 02:54:38;;;;;;;;;;;;;;;0.17;100.00;100919.97;5113780;28;19912;-71
2023/03/22 02:57:07;;;;;;;;;;;;;;;0.20;100.00;100914.53;5114076;28;19919;-69
2023/03/22 02:59:36;;;;;;;;;;;;;;;0.26;100.00;100926.41;5114219;28;19912;-67
2023/03/22 03:02:02;;;;;;;;;;;;;;;0.18;100.00;100920.81;5113943;28;20362;-71
2023/03/22 03:04:30;;;;;;;;;;;;;;;0.03;100.00;100925.22;5114367;28;20363;-69
2023/03/22 03:06:58;;;;;;;;;;;;;;;0.01;100.00;100919.22;5113833;28;19911;-72
2023/03/22 03:09:23;;;;;;;;;;;;;;;0.03;100.00;100922.59;5113729;28;19916;-67
2023/03/22 03:11:50;;;;;;;;;;;;;;;-0.02;100.00;100917.59;5113565;28;19912;-67
2023/03/22 03:14:23;;;;;;;;;;;;;;;-0.05;100.00;100919.56;5095281;28;19912;-70
2023/03/22 03:16:58;;;;;;;;;;;;;;;-0.09;100.00;100923.28;5113330;28;19956;-71
2023/03/22 03:19:29;;;;;;;;;;;;;;;-0.04;100.00;100926.47;5113900;28;19919;-70
2023/03/22 03:22:18;;;;;;;;;;;;;;;-0.07;100.00;100926.66;5113966;28;19911;-70
2023/03/22 03:25:21;;;;;;;;;;;;;;;-0.03;100.00;100923.78;5112753;28;19912;-70
2023/03/22 03:27:56;;;;;;;;;;;;;;;0.03;100.00;100926.97;5030615;28;20016;-72
2023/03/22 03:30:31;;;;;;;;;;;;;;;0.07;100.00;100923.25;5031010;28;19967;-67
2023/03/22 03:33:02;;;;;;;;;;;;;;;0.00;100.00;100928.00;5080048;28;19920;-66
2023/03/22 03:35:36;;;;;;;;;;;;;;;-0.03;100.00;100930.78;5115540;28;20265;-68
2023/03/22 03:38:08;;;;;;;;;;;;;;;-0.03;100.00;100920.31;5113826;28;19920;-67
2023/03/22 03:40:40;;;;;;;;;;;;;;;0.04;100.00;100919.03;5114175;28;20019;-65
2023/03/22 03:43:06;;;;;;;;;;;;;;;0.02;100.00;100920.91;5114010;28;20013;-66
2023/03/22 03:45:33;;;;;;;;;;;;;;;-0.01;100.00;100921.06;5113240;28;20343;-71
2023/03/22 03:48:00;;;;;;;;;;;;;;;-0.06;100.00;100923.13;5113012;28;20267;-67
2023/03/22 03:50:26;;;;;;;;;;;;;;;-0.07;100.00;100924.03;5115181;28;19912;-68
2023/03/22 03:52:53;;;;;;;;;;;;;;;-0.07;100.00;100918.81;5095393;28;19938;-67
2023/03/22 03:55:20;;;;;;;;;;;;;;;-0.04;100.00;100922.09;5095120;28;19923;-68
2023/03/22 03:57:45;;;;;;;;;;;;;;;0.04;100.00;100919.03;5113243;28;20342;-67
2023/03/22 04:00:13;;;;;;;;;;;;;;;0.12;100.00;100922.03;5114149;28;19951;-67
2023/03/22 04:02:39;;;;;;;;;;;;;;;0.13;100.00;100918.47;5112788;28;19912;-67
2023/03/22 04:05:06;;;;;;;;;;;;;;;0.12;100.00;100924.66;5112904;28;19912;-68
2023/03/22 04:07:31;;;;;;;;;;;;;;;0.01;100.00;100924.47;5116230;28;20359;-69
2023/03/22 04:09:56;;;;;;;;;;;;;;;0.04;100.00;100916.41;5117178;28;19922;-67
2023/03/22 04:12:22;;;;;;;;;;;;;;;0.15;100.00;100919.22;5119553;28;19919;-67
2023/03/22 04:14:47;;;;;;;;;;;;;;;0.16;100.00;100915.66;5122318;28;19912;-68
2023/03/22 04:17:12;;;;;;;;;;;;;;;0.17;100.00;100914.72;5117303;28;19911;-67
2023/03/22 04:19:38;;;;;;;;;;;;;;;0.16;100.00;100920.06;5117512;28;19912;-69
2023/03/22 04:22:03;;;;;;;;;;;;;;;0.23;100.00;100924.84;5117227;28;19912;-68
2023/03/22 04:27:34;;;;;;;;;;;;;;;0.31;100.00;100924.41;5121343;27;19916;-68
2023/03/22 04:29:59;;;;;;;;;;;;;;;0.27;100.00;100928.94;5117570;27;19916;-69
2023/03/22 04:32:25;;;;;;;;;;;;;;;0.19;100.00;100928.56;5116254;28;19911;-69
2023/03/22 04:34:51;;;;;;;;;;;;;;;0.23;100.00;100927.44;5115332;28;20383;-70
2023/03/22 04:37:17;;;;;;;;;;;;;;;0.23;100.00;100930.06;5116634;28;19922;-69
2023/03/22 04:39:42;;;;;;;;;;;;;;;0.23;100.00;100935.31;5098570;28;20297;-69
2023/03/22 04:42:08;;;;;;;;;;;;;;;0.26;100.00;100932.50;5117716;28;20056;-70
2023/03/22 04:44:33;;;;;;;;;;;;;;;0.32;100.00;100935.72;5116550;28;19911;-68
2023/03/22 04:46:59;;;;;;;;;;;;;;;0.40;100.00;100942.16;5116664;28;19916;-68
2023/03/22 04:49:25;;;;;;;;;;;;;;;0.39;100.00;100937.84;5116429;28;19996;-69
2023/03/22 04:51:51;;;;;;;;;;;;;;;0.15;100.00;100939.34;5116114;28;19916;-67
2023/03/22 04:54:16;;;;;;;;;;;;;;;-0.05;100.00;100943.13;5115902;28;20056;-66
2023/03/22 04:56:41;;;;;;;;;;;;;;;-0.04;100.00;100931.72;5116183;28;19935;-67
2023/03/22 04:59:07;;;;;;;;;;;;;;;0.09;100.00;100935.31;5116090;28;19912;-69
2023/03/22 05:01:34;;;;;;;;;;;;;;;0.22;100.00;100923.16;5116154;28;20002;-71
2023/03/22 05:03:59;;;;;;;;;;;;;;;0.29;100.00;100929.72;5116631;28;19916;-69
2023/03/22 05:06:25;;;;;;;;;;;;;;;0.24;100.00;100930.91;5116256;28;19972;-73
2023/03/22 05:08:51;;;;;;;;;;;;;;;0.25;100.00;100935.22;5116013;28;19919;-70
2023/03/22 05:11:18;;;;;;;;;;;;;;;0.23;100.00;100937.94;5097859;28;20405;-70
2023/03/22 05:13:43;;;;;;;;;;;;;;;0.09;100.00;100934.47;5116416;28;19924;-67
2023/03/22 05:16:09;;;;;;;;;;;;;;;0.02;100.00;100931.38;5116237;28;19957;-70
2023/03/22 05:18:41;;;;;;;;;;;;;;;-0.08;100.00;100940.69;5114635;28;20010;-69
2023/03/22 05:21:10;;;;;;;;;;;;;;;-0.09;100.00;100939.00;5116032;28;19911;-70
2023/03/22 05:23:35;;;;;;;;;;;;;;;-0.05;100.00;100930.88;5097815;28;19918;-70
2023/03/22 05:26:14;;;;;;;;;;;;;;;0.06;100.00;100932.88;5097257;28;19915;-72
2023/03/22 05:28:41;;;;;;;;;;;;;;;0.11;100.00;100941.28;5115948;28;19912;-66
2023/03/22 05:31:07;;;;;;;;;;;;;;;0.23;100.00;100931.84;5097352;28;19964;-65
2023/03/22 05:33:33;;;;;;;;;;;;;;;0.31;100.00;100932.25;5115475;28;20076;-67
2023/03/22 05:35:59;;;;;;;;;;;;;;;0.33;100.00;100921.69;5114122;28;19923;-68
2023/03/22 05:38:24;;;;;;;;;;;;;;;0.37;100.00;100925.78;5114540;28;19911;-66
2023/03/22 05:40:49;;;;;;;;;;;;;;;0.40;100.00;100926.44;5115179;28;19919;-67
2023/03/22 05:43:15;;;;;;;;;;;;;;;0.33;100.00;100926.91;5115338;28;19919;-68
2023/03/22 05:45:40;;;;;;;;;;;;;;;0.24;100.00;100936.16;5097001;28;19969;-64
2023/03/22 05:48:06;;;;;;;;;;;;;;;0.16;100.00;100928.75;5115087;28;19943;-68
2023/03/22 05:50:31;;;;;;;;;;;;;;;0.10;100.00;100942.22;5114976;28;20366;-66
2023/03/22 05:52:57;;;;;;;;;;;;;;;0.07;100.00;100945.03;5115002;28;19947;-66
2023/03/22 05:55:23;;;;;;;;;;;;;;;0.12;100.00;100936.91;5096632;28;19912;-68
2023/03/22 05:57:50;;;;;;;;;;;;;;;0.07;100.00;100945.03;5099722;27;19964;-69
2023/03/22 06:00:16;;;;;;;;;;;;;;;0.07;100.00;100945.03;5116985;27;19922;-68
2023/03/22 06:02:51;;;;;;;;;;;;;;;0.16;100.00;100946.25;5115120;28;19911;-69
2023/03/22 06:05:19;;;;;;;;;;;;;;;0.27;100.00;100942.03;5114717;28;19918;-66
2023/03/22 06:07:45;;;;;;;;;;;;;;;0.26;99.83;100937.75;5114977;28;20375;-69
2023/03/22 06:10:11;;;;;;;;;;;;;;;0.35;100.00;100932.91;5114843;28;19980;-67
2023/03/22 06:12:38;;;;;;;;;;;;;;;0.43;99.82;100930.66;5115096;28;19969;-66
2023/03/22 06:15:03;;;;;;;;;;;;;;;0.50;99.58;100932.78;5114858;28;19916;-68
2023/03/22 06:17:29;;;;;;;;;;;;;;;0.51;98.51;100925.78;5114924;28;19912;-68
2023/03/22 06:19:54;;;;;;;;;;;;;;;0.51;98.62;100920.53;5114650;28;20010;-70
2023/03/22 06:22:20;;;;;;;;;;;;;;;0.53;98.33;100924.75;5096163;28;20426;-67
2023/03/22 06:24:46;;;;;;;;;;;;;;;0.58;97.53;100924.47;5114857;28;20008;-68
2023/03/22 06:27:12;;;;;;;;;;;;;;;0.55;97.25;100914.16;5114283;28;19918;-66
2023/03/22 06:29:37;;;;;;;;;;;;;;;0.57;97.51;100914.91;5113879;28;19962;-67
2023/03/22 06:32:03;;;;;;;;;;;;;;;0.62;97.64;100920.72;5114328;28;19963;-66
2023/03/22 06:34:28;;;;;;;;;;;;;;;0.79;97.91;100917.88;5114325;27;20315;-72
2023/03/22 06:36:54;;;;;;;;;;;;;;;0.98;97.18;100921.97;5114098;28;19933;-70
2023/03/22 06:39:19;;;;;;;;;;;;;;;1.15;96.56;100914.69;5114251;28;19927;-68
2023/03/22 06:41:45;;;;;;;;;;;;;;;1.31;96.28;100922.44;5114331;28;19962;-68
2023/03/22 06:44:10;;;;;;;;;;;;;;;1.15;93.80;100919.09;5095863;28;19962;-68
2023/03/22 06:46:35;;;;;;;;;;;;;;;1.02;95.10;100923.47;5113825;28;19912;-67
2023/03/22 06:49:01;;;;;;;;;;;;;;;0.99;95.35;100918.41;5113861;28;19955;-65
2023/03/22 06:51:26;;;;;;;;;;;;;;;1.03;95.76;100917.28;5095537;28;19912;-75
2023/03/22 06:53:52;;;;;;;;;;;;;;;1.00;94.89;100917.47;5095262;28;19916;-70
2023/03/22 06:56:17;;;;;;;;;;;;;;;0.96;95.89;100918.63;5113783;28;19912;-69
2023/03/22 06:58:42;;;;;;;;;;;;;;;0.93;95.55;100914.41;5113808;28;19911;-69
2023/03/22 07:01:08;;;;;;;;;;;;;;;0.75;96.01;100919.00;5113556;28;19911;-67
2023/03/22 07:03:33;;;;;;;;;;;;;;;0.86;96.63;100919.16;5113469;28;19912;-71
2023/03/22 07:06:02;;;;;;;;;;;;;;;1.08;96.83;100916.03;5081057;28;19916;-71
2023/03/22 07:08:27;;;;;;;;;;;;;;;1.18;94.85;100916.31;5116620;28;19918;-73
2023/03/22 07:10:55;;;;;;;;;;;;;;;1.08;94.27;100913.41;5099153;28;19916;-72
2023/03/22 07:13:21;;;;;;;;;;;;;;;1.06;94.58;100922.31;5117952;28;20274;-69
2023/03/22 07:15:46;;;;;;;;;;;;;;;1.02;94.17;100924.31;5099781;28;19911;-73
2023/03/22 07:18:11;;;;;;;;;;;;;;;1.11;94.26;100913.22;5117017;28;20279;-71
2023/03/22 07:20:39;;;;;;;;;;;;;;;1.19;93.82;100921.47;5116618;28;19912;-69
2023/03/22 07:23:04;;;;;;;;;;;;;;;1.33;94.48;100912.69;5119098;28;19911;-70
2023/03/22 07:25:30;;;;;;;;;;;;;;;1.63;93.77;100912.44;5122927;28;19938;-70
2023/03/22 07:27:55;;;;;;;;;;;;;;;1.78;91.82;100923.72;5126107;28;19951;-69
2023/03/22 07:30:21;;;;;;;;;;;;;;;1.84;91.21;100918.91;5115071;28;20043;-69
2023/03/22 07:32:46;;;;;;;;;;;;;;;1.82;91.02;100914.69;5116392;28;19915;-71
2023/03/22 07:35:12;;;;;;;;;;;;;;;1.87;90.78;100912.59;5120208;28;19915;-71
2023/03/22 07:37:38;;;;;;;;;;;;;;;1.75;90.41;100918.69;5118138;28;19962;-69
2023/03/22 07:40:03;;;;;;;;;;;;;;;1.80;91.35;100911.34;5115045;28;19920;-71
2023/03/22 07:42:30;;;;;;;;;;;;;;;1.93;90.65;100913.97;5113785;28;19933;-73
2023/03/22 07:44:55;;;;;;;;;;;;;;;1.91;89.70;100908.81;5114312;28;19953;-70
2023/03/22 07:47:20;;;;;;;;;;;;;;;1.99;90.25;100903.88;5095530;28;19959;-70
2023/03/22 07:49:46;;;;;;;;;;;;;;;2.22;89.88;100901.47;5114406;28;20045;-71
2023/03/22 07:52:11;;;;;;;;;;;;;;;2.43;89.67;100894.75;5115909;28;19916;-70
2023/03/22 07:54:37;;;;;;;;;;;;;;;2.43;88.66;100887.69;5115329;28;19993;-69
2023/03/22 07:57:03;;;;;;;;;;;;;;;2.39;88.53;100898.53;5113091;28;20341;-69
2023/03/22 07:59:28;;;;;;;;;;;;;;;2.32;88.76;100899.91;5094829;28;20018;-69
2023/03/22 08:01:53;;;;;;;;;;;;;;;2.35;88.94;100902.31;5130303;28;19911;-67
2023/03/22 08:04:21;;;;;;;;;;;;;;;2.22;89.02;100898.84;5136244;28;19955;-67
2023/03/22 08:06:47;;;;;;;;;;;;;;;2.19;89.32;100897.28;5117271;28;19997;-69
2023/03/22 08:09:13;;;;;;;;;;;;;;;2.20;88.74;100892.84;5135501;28;19943;-66
2023/03/22 08:11:38;;;;;;;;;;;;;;;2.24;89.28;100892.53;5124472;28;19947;-66
2023/03/22 08:14:03;;;;;;;;;;;;;;;2.37;88.51;100889.91;5134797;28;20247;-68
2023/03/22 08:16:29;;;;;;;;;;;;;;;2.48;88.67;100877.69;5137759;28;19911;-70
2023/03/22 08:18:54;;;;;;;;;;;;;;;2.62;88.44;100878.53;5116197;28;19911;-72
2023/03/22 08:21:20;;;;;;;;;;;;;;;2.75;87.94;100872.25;5134325;28;19934;-73
2023/03/22 08:23:46;;;;;;;;;;;;;;;2.92;88.19;100870.22;5133265;28;20392;-70
2023/03/22 08:26:11;;;;;;;;;;;;;;;3.15;87.14;100869.38;5133176;28;19915;-73
2023/03/22 08:28:36;;;;;;;;;;;;;;;3.24;85.95;100865.25;5133088;28;19911;-73
2023/03/22 08:31:08;;;;;;;;;;;;;;;3.30;85.60;100864.78;5133010;28;19911;-69
2023/03/22 08:33:34;;;;;;;;;;;;;;;3.28;85.02;100867.53;5133067;28;19922;-67
2023/03/22 08:36:06;;;;;;;;;;;;;;;3.11;85.67;100870.53;5133170;28;19920;-69
2023/03/22 08:38:31;;;;;;;;;;;;;;;2.98;85.80;100867.97;5114529;28;19921;-70
2023/03/22 08:40:57;;;;;;;;;;;;;;;3.05;85.84;100863.09;5132944;28;20006;-71
2023/03/22 08:43:22;;;;;;;;;;;;;;;3.06;85.96;100856.88;5114422;28;19912;-69
2023/03/22 08:45:47;;;;;;;;;;;;;;;3.19;86.33;100859.47;5130207;28;19911;-69
2023/03/22 08:48:12;;;;;;;;;;;;;;;3.24;85.17;100850.28;5094394;28;20297;-70
2023/03/22 08:50:38;;;;;;;;;;;;;;;3.17;85.69;100848.19;5112487;28;19964;-70
2023/03/22 08:53:04;;;;;;;;;;;;;;;3.17;83.96;100845.56;5122150;27;19912;-68
2023/03/22 08:55:30;;;;;;;;;;;;;;;3.15;84.75;100840.41;5116670;28;19911;-70
2023/03/22 08:57:58;;;;;;;;;;;;;;;3.16;85.23;100847.34;5116159;28;19959;-68
2023/03/22 09:00:24;;;;;;;;;;;;;;;3.17;84.50;100843.78;5116361;28;19965;-67
2023/03/22 09:02:49;;;;;;;;;;;;;;;3.33;84.22;100844.34;5125033;27;19915;-69
2023/03/22 09:05:15;;;;;;;;;;;;;;;3.48;84.34;100841.53;5136553;27;19919;-68
2023/03/22 09:07:40;;;;;;;;;;;;;;;3.58;83.11;100838.06;5134078;27;19911;-67
2023/03/22 09:10:07;;;;;;;;;;;;;;;3.62;81.63;100836.03;5115984;28;20019;-67
2023/03/22 09:12:32;;;;;;;;;;;;;;;3.66;82.27;100840.13;5115864;28;19916;-69
2023/03/22 09:14:57;;;;;;;;;;;;;;;3.70;81.66;100852.09;5097517;28;19912;-67
2023/03/22 09:17:23;;;;;;;;;;;;;;;3.56;80.66;100836.50;5115626;28;19912;-68
2023/03/22 09:19:48;;;;;;;;;;;;;;;3.41;82.06;100841.97;5115916;28;19912;-67
2023/03/22 09:22:14;;;;;;;;;;;;;;;3.37;82.66;100844.94;5116378;28;19911;-67
2023/03/22 09:24:39;;;;;;;;;;;;;;;3.55;81.77;100832.19;5116163;28;19912;-67
2023/03/22 09:27:04;;;;;;;;;;;;;;;3.67;81.96;100831.25;5115368;28;19911;-68
2023/03/22 09:29:30;;;;;;;;;;;;;;;3.63;80.22;100835.09;5115111;28;19957;-66
2023/03/22 09:31:55;;;;;;;;;;;;;;;3.43;81.73;100826.88;5115339;28;20370;-69
2023/03/22 09:34:21;;;;;;;;;;;;;;;3.39;82.13;100835.97;5115492;28;19919;-66
2023/03/22 09:36:46;;;;;;;;;;;;;;;3.31;82.19;100827.81;5131273;27;19923;-68
2023/03/22 09:39:11;;;;;;;;;;;;;;;3.32;81.82;100833.91;5135921;27;19923;-68
2023/03/22 09:41:45;;;;;;;;;;;;;;;3.22;82.33;100839.03;5135831;27;20371;-68
2023/03/22 09:44:40;;;;;;;;;;;;;;;3.01;82.82;100828.28;5135413;27;20370;-68
2023/03/22 09:47:10;;;;;;;;;;;;;;;2.74;83.95;100822.41;5117714;27;19911;-69
2023/03/22 09:49:39;;;;;;;;;;;;;;;2.68;84.31;100825.47;5135692;27;20331;-67
2023/03/22 09:52:09;;;;;;;;;;;;;;;2.65;85.26;100828.34;5135628;27;19923;-68
2023/03/22 09:54:37;;;;;;;;;;;;;;;2.56;86.20;100832.44;5135456;27;20002;-68
2023/03/22 09:57:08;;;;;;;;;;;;;;;2.51;86.11;100829.31;5135288;27;19911;-67
2023/03/22 09:59:38;;;;;;;;;;;;;;;2.53;86.44;100835.28;5117076;27;20037;-68
2023/03/22 10:02:16;;;;;;;;;;;;;;;2.41;87.42;100829.13;5135442;27;20000;-67
2023/03/22 10:04:41;;;;;;;;;;;;;;;2.34;88.32;100833.16;5134501;27;20397;-68
2023/03/22 10:07:26;;;;;;;;;;;;;;;2.23;89.47;100832.22;5116741;27;19911;-68
2023/03/22 10:10:09;;;;;;;;;;;;;;;2.12;90.55;100828.56;5135268;27;19915;-69
2023/03/22 10:12:38;;;;;;;;;;;;;;;2.18;90.18;100833.38;5135189;27;19915;-67
2023/03/22 10:15:22;;;;;;;;;;;;;;;2.25;89.78;100827.69;5134885;27;19934;-70
2023/03/22 10:17:52;;;;;;;;;;;;;;;2.33;89.48;100826.22;5135235;27;19964;-69
2023/03/22 10:20:27;;;;;;;;;;;;;;;2.31;89.22;100830.72;5135333;27;19911;-70
2023/03/22 10:22:54;;;;;;;;;;;;;;;2.28;89.50;100828.31;5135233;27;19963;-70
2023/03/22 10:25:21;;;;;;;;;;;;;;;2.28;89.79;100833.56;5134901;27;20358;-70
2023/03/22 10:27:48;;;;;;;;;;;;;;;2.12;90.28;100817.19;5137843;27;19915;-69
2023/03/22 10:30:21;;;;;;;;;;;;;;;2.08;91.11;100821.00;5136260;27;20270;-67
2023/03/22 10:33:03;;;;;;;;;;;;;;;2.04;91.49;100817.75;5136185;27;19950;-68
2023/03/22 10:35:30;;;;;;;;;;;;;;;1.96;91.87;100812.16;5135073;27;19921;-68
2023/03/22 10:37:58;;;;;;;;;;;;;;;1.92;91.91;100810.69;5135167;27;19915;-69
2023/03/22 10:40:26;;;;;;;;;;;;;;;1.98;92.43;100814.69;5134477;27;20282;-71
2023/03/22 10:42:53;;;;;;;;;;;;;;;2.00;92.51;100810.16;5134854;27;19912;-70
2023/03/22 10:45:19;;;;;;;;;;;;;;;2.07;92.94;100799.13;5134951;27;19912;-69
2023/03/22 10:47:47;;;;;;;;;;;;;;;2.28;92.13;100795.94;5134592;27;19911;-68
2023/03/22 10:50:27;;;;;;;;;;;;;;;2.39;91.41;100793.41;5135017;27;19911;-70
2023/03/22 10:53:11;;;;;;;;;;;;;;;2.50;91.63;100798.72;5134498;27;19911;-70
2023/03/22 10:55:52;;;;;;;;;;;;;;;2.49;90.97;100794.41;5136159;27;20363;-78
2023/03/22 10:58:31;;;;;;;;;;;;;;;2.41;91.49;100786.25;5139456;27;19912;-76
2023/03/22 11:01:31;;;;;;;;;;;;;;;2.44;91.40;100778.97;5104716;27;19926;-68
2023/03/22 11:04:07;;;;;;;;;;;;;;;2.47;92.12;100770.03;5134259;27;19911;-67
2023/03/22 11:06:36;;;;;;;;;;;;;;;2.51;91.69;100766.22;5134015;27;19912;-68
2023/03/22 11:09:11;;;;;;;;;;;;;;;2.47;91.48;100768.22;5134003;27;19916;-68
2023/03/22 11:11:57;;;;;;;;;;;;;;;2.52;91.74;100770.53;5134376;27;19912;-69
2023/03/22 11:14:30;;;;;;;;;;;;;;;2.62;91.79;100760.19;5134240;27;19926;-70
2023/03/22 11:16:58;;;;;;;;;;;;;;;2.72;91.81;100762.03;5115602;27;20306;-71
2023/03/22 11:19:26;;;;;;;;;;;;;;;2.76;91.34;100755.59;5133906;27;19950;-71
2023/03/22 11:21:52;;;;;;;;;;;;;;;2.67;91.40;100755.44;5133903;27;19918;-70
2023/03/22 11:24:20;;;;;;;;;;;;;;;2.66;91.89;100759.84;5133877;27;19963;-70
2023/03/22 11:27:00;;;;;;;;;;;;;;;2.66;91.61;100754.59;5133839;27;20274;-69
2023/03/22 11:29:26;;;;;;;;;;;;;;;2.67;92.03;100748.38;5133703;27;19937;-70
2023/03/22 11:31:56;;;;;;;;;;;;;;;2.72;92.05;100740.16;5133652;27;19915;-70
2023/03/22 11:34:23;;;;;;;;;;;;;;;2.69;92.03;100735.97;5133459;27;20378;-73
2023/03/22 11:36:55;;;;;;;;;;;;;;;2.57;92.41;100731.59;5126820;27;19960;-73
2023/03/22 11:39:21;;;;;;;;;;;;;;;2.46;93.09;100727.13;5124115;27;19911;-72
2023/03/22 11:41:46;;;;;;;;;;;;;;;2.44;93.46;100715.03;5121301;27;19976;-69
2023/03/22 11:44:14;;;;;;;;;;;;;;;2.39;93.53;100719.81;5124590;27;19934;-69
2023/03/22 11:46:47;;;;;;;;;;;;;;;2.43;93.87;100710.75;5104440;27;19911;-71
2023/03/22 11:49:15;;;;;;;;;;;;;;;2.53;93.81;100714.38;5121873;27;19921;-71
2023/03/22 11:51:41;;;;;;;;;;;;;;;2.62;93.78;100708.44;5122326;27;19955;-70
2023/03/22 11:54:06;;;;;;;;;;;;;;;2.76;93.58;100703.00;5120795;27;20006;-70
2023/03/22 11:56:31;;;;;;;;;;;;;;;2.86;92.93;100705.78;5130730;27;19912;-72
2023/03/22 11:59:07;;;;;;;;;;;;;;;2.93;93.36;100700.91;5133956;28;19917;-74
2023/03/22 12:01:56;;;;;;;;;;;;;;;3.01;92.65;100694.13;5135272;28;19964;-69
2023/03/22 12:04:25;;;;;;;;;;;;;;;2.83;92.70;100697.28;5122689;28;19915;-70
2023/03/22 12:06:52;;;;;;;;;;;;;;;2.73;93.02;100697.97;5133298;28;20014;-70
2023/03/22 12:09:24;;;;;;;;;;;;;;;2.65;93.73;100684.56;5133277;28;19935;-72
2023/03/22 12:11:57;;;;;;;;;;;;;;;2.72;94.13;100688.41;5114907;28;20278;-70
2023/03/22 12:14:39;;;;;;;;;;;;;;;2.83;93.36;100687.59;5133015;28;20010;-72
2023/03/22 12:17:25;;;;;;;;;;;;;;;2.91;93.19;100685.25;5133320;28;20061;-71
2023/03/22 12:20:15;;;;;;;;;;;;;;;2.82;92.04;100680.66;5133427;28;19954;-69
2023/03/22 12:22:42;;;;;;;;;;;;;;;2.74;92.23;100678.59;5133064;28;19912;-71
2023/03/22 12:25:14;;;;;;;;;;;;;;;2.71;92.46;100673.56;5133081;28;19989;-71
2023/03/22 12:27:42;;;;;;;;;;;;;;;2.76;92.88;100666.19;5134867;27;19958;-70
2023/03/22 12:30:13;;;;;;;;;;;;;;;2.77;91.90;100648.59;5137273;27;19919;-71
2023/03/22 12:32:45;;;;;;;;;;;;;;;2.77;91.70;100657.34;5136741;27;20023;-71
2023/03/22 12:35:16;;;;;;;;;;;;;;;2.83;91.61;100640.25;5136693;27;19916;-69
2023/03/22 12:37:43;;;;;;;;;;;;;;;2.88;91.30;100637.25;5137207;27;19915;-70
2023/03/22 12:40:14;;;;;;;;;;;;;;;2.90;91.34;100630.13;5137015;27;20370;-72
2023/03/22 12:42:44;;;;;;;;;;;;;;;3.02;91.66;100634.44;5125066;27;20279;-66
2023/03/22 12:45:15;;;;;;;;;;;;;;;3.10;91.62;100618.91;5116285;28;20382;-70
2023/03/22 12:47:42;;;;;;;;;;;;;;;3.12;91.80;100624.88;5116095;28;20308;-70
2023/03/22 12:50:12;;;;;;;;;;;;;;;3.19;91.96;100623.47;5116218;28;19976;-68